Tiempo atmosférico en la estación meteorológica de Fresno de Cantiespino, Segovia (993 m.)

Fecha
DESCASC
Temp. máxima en grados centígrados (hora)
DESCASC
Temp. mínima en grados centígrados (hora)
DESCASC
Temp. media en grados centígrados
DESCASC
Racha de viento máxima en m/sg (hora)
DESCASC
Velocidad máxima media en intervalos de 10 minutos(hora)
DESCASC
Precipitaciones diarias en mm
DESCASC
Precipitaciones de 00:00 a 06:00 en mm
DESCASC
Precipitaciones de 06:00 a 12:00 en mm
DESCASC
Precipitaciones de 12:00 a 18:00 en mm
DESCASC
Precipitaciones de 18:00 a 24:00 en mm
DESCASC

Gráficas

Temp. máximas Temp. mínimas Temp. medias Precipitaciones Rachas de viento máximas Velocidades máximas media en intervalos de 10 minutos

Datos horarios

Fecha y hora oficial Temperatura (ºC) Velocidad del viento (km/h) Dirección del viento Racha (km/h) Dirección de racha Precipitación (mm) Presión (hPa) Tendencia (hPa) Humedad (%)
2017-11-23 23:00:00 7.1 0 Calma 5 Norte 0 -- -- 64
2017-11-23 22:00:00 7.8 5 Noroeste 8 Norte 0 -- -- 61
2017-11-23 21:00:00 7.3 4 Norte 6 Nordeste 0 -- -- 61
2017-11-23 20:00:00 8.1 6 Sudoeste 8 Sur 0 -- -- 58
2017-11-23 19:00:00 9.3 4 Sur 14 Sudoeste 0 -- -- 54
2017-11-23 18:00:00 12.5 8 Sudoeste 19 Sudoeste 0 -- -- 46
2017-11-23 17:00:00 14.6 10 Sudoeste 21 Sudoeste 0 -- -- 41
2017-11-23 16:00:00 15.9 12 Sudoeste 35 Oeste 0 -- -- 38
2017-11-23 15:00:00 16.8 22 Oeste 38 Sudoeste 0 -- -- 34
2017-11-23 14:00:00 17.1 22 Sudoeste 37 Oeste 0 -- -- 32
2017-11-23 13:00:00 15.2 26 Oeste 45 Sudoeste 0 -- -- 40
2017-11-23 12:00:00 15.8 25 Sudoeste 38 Sudoeste 0 -- -- 33
2017-11-23 11:00:00 14.9 13 Sudoeste 32 Sudoeste 0 -- -- 37
2017-11-23 10:00:00 13.5 8 Sudoeste 18 Sudoeste 0 -- -- 38
2017-11-23 09:00:00 12.6 6 Sudoeste 18 Sudoeste 0 -- -- 39
2017-11-23 08:00:00 12.2 10 Sudoeste 21 Sudoeste 0 -- -- 39
2017-11-23 07:00:00 11.4 12 Sudoeste 18 Sudoeste 0 -- -- 41
2017-11-23 06:00:00 11.3 7 Sudoeste 22 Sudoeste 0 -- -- 43
2017-11-23 05:00:00 12.6 13 Sudoeste 29 Sur 0 -- -- 39
2017-11-23 04:00:00 11.8 10 Sur 15 Sur 0 -- -- 42
2017-11-23 03:00:00 9 4 Sur 17 Sudoeste 0 -- -- 49
2017-11-23 02:00:00 12.8 14 Sudoeste 38 Sudoeste 0 -- -- 38
2017-11-23 01:00:00 11.4 10 Sudoeste 19 Sur 0 -- -- 41
2017-11-23 00:00:00 12.3 10 Sudoeste 23 Sur 0 -- -- 38
2017-11-22 23:00:00 12.8 11 Sudoeste 19 Sudoeste 0 -- -- 38
2017-11-22 22:00:00 12.2 10 Sudoeste 23 Sudoeste 0 -- -- 41
2017-11-22 21:00:00 10.2 10 Sudoeste 20 Sur 0 -- -- 46
2017-11-22 20:00:00 8.6 7 Sur 15 Sur 0 -- -- 50
2017-11-22 19:00:00 9.7 7 Sur 10 Sur 0 -- -- 47
2017-11-22 18:00:00 13.8 8 Sudoeste 40 Sudoeste 0 -- -- 38
2017-11-22 17:00:00 15.8 13 Sur 22 Sur 0 -- -- 34
2017-11-22 16:00:00 18.6 13 Sur 26 Sudoeste 0 -- -- 26
2017-11-22 15:00:00 19 13 Sudoeste 28 Sur 0 -- -- 26
2017-11-22 14:00:00 18.4 10 Sudoeste 21 Sudoeste 0 -- -- 28
2017-11-22 13:00:00 14.7 4 Nordeste 8 Nordeste 0 -- -- 34
2017-11-22 12:00:00 10.7 2 Nordeste 4 Este 0 -- -- 41
2017-11-22 11:00:00 6.1 5 Nordeste 9 Norte 0 -- -- 58
2017-11-22 10:00:00 2.7 0 Calma 5 Sudoeste 0 -- -- 68
2017-11-22 09:00:00 -1.5 7 Sudoeste 12 Sur 0 -- -- 80
2017-11-22 08:00:00 -4.2 5 Sur 8 Sur 0 -- -- 88
2017-11-22 07:00:00 -3.5 3 Sudoeste 8 Sudoeste 0 -- -- 84
2017-11-22 06:00:00 -4.2 3 Norte 8 Norte 0 -- -- 82
2017-11-22 05:00:00 -3.8 4 Sudoeste 8 Sur 0 -- -- 85
2017-11-22 04:00:00 -2.4 7 Sudoeste 14 Sur 0 -- -- 81
2017-11-22 03:00:00 -3 7 Sudoeste 10 Sudoeste 0 -- -- 82
2017-11-22 02:00:00 -3 6 Sur 8 Sur 0 -- -- 81
2017-11-22 01:00:00 -2.3 2 Sur 12 Sur 0 -- -- 76
2017-11-22 00:00:00 -1 10 Sudoeste 12 Sudoeste 0 -- -- 73
2017-11-21 23:00:00 -0.6 8 Sur 9 Sur 0 -- -- 69
2017-11-21 22:00:00 0.2 4 Sur 14 Sur 0 -- -- 65
2017-11-21 21:00:00 2.3 13 Sur 16 Sudoeste 0 -- -- 60
2017-11-21 20:00:00 3.3 13 Sudoeste 14 Sudoeste 0 -- -- 55
2017-11-21 19:00:00 5 3 Oeste 12 Sudoeste 0 -- -- 49
2017-11-21 18:00:00 9.1 6 Sur 8 Sur 0 -- -- 38
2017-11-21 17:00:00 16.2 7 Sudoeste 18 Oeste 0 -- -- 26
2017-11-21 16:00:00 17.1 8 Oeste 21 Sudoeste 0 -- -- 24
2017-11-21 15:00:00 16.9 15 Oeste 23 Oeste 0 -- -- 26
2017-11-21 14:00:00 16.2 14 Oeste 26 Oeste 0 -- -- 28
2017-11-21 13:00:00 15.8 14 Oeste 24 Oeste 0 -- -- 28
2017-11-21 12:00:00 13.1 9 Oeste 12 Noroeste 0 -- -- 37
2017-11-21 11:00:00 7.7 3 Norte 6 Sur 0 -- -- 54
2017-11-21 10:00:00 3.9 5 Sur 6 Sur 0 -- -- 65
2017-11-21 09:00:00 -2.5 0 Calma 8 Sudoeste 0 -- -- 82
2017-11-21 08:00:00 -4.4 7 Sur 8 Sur 0 -- -- 87
2017-11-21 07:00:00 -4.3 2 Sur 8 Sudoeste 0 -- -- 84
2017-11-21 06:00:00 -3.9 6 Sudoeste 8 Sudoeste 0 -- -- 83
2017-11-21 05:00:00 -3.8 4 Sudoeste 6 Sudoeste 0 -- -- 82
2017-11-21 04:00:00 -2.7 5 Sur 9 Sur 0 -- -- 80
2017-11-21 03:00:00 -2.8 5 Sudoeste 8 Sudoeste 0 -- -- 79
2017-11-21 02:00:00 -2.6 5 Sudoeste 11 Sudoeste 0 -- -- 79
2017-11-21 01:00:00 -2.2 2 Sur 10 Sur 0 -- -- 77
2017-11-21 00:00:00 -1.7 9 Sudoeste 10 Sur 0 -- -- 77
2017-11-20 23:00:00 -0.4 5 Sur 11 Sur 0 -- -- 71
2017-11-20 22:00:00 0.5 8 Sur 10 Sur 0 -- -- 69
2017-11-20 21:00:00 1.3 7 Sudoeste 12 Sudoeste 0 -- -- 67
2017-11-20 20:00:00 2.3 10 Sudoeste 13 Sudoeste 0 -- -- 63
2017-11-20 19:00:00 4.9 10 Sudoeste 12 Sur 0 -- -- 55
2017-11-20 18:00:00 10.4 5 Sur 12 Sudoeste 0 -- -- 39
2017-11-20 17:00:00 15.9 9 Sudoeste 14 Sudoeste 0 -- -- 28
2017-11-20 16:00:00 17 9 Sudoeste 15 Oeste 0 -- -- 26
2017-11-20 15:00:00 16.7 6 Oeste 14 Oeste 0 -- -- 28
2017-11-20 14:00:00 15.6 5 Oeste 15 Oeste 0 -- -- 25
2017-11-20 13:00:00 14.4 10 Oeste 17 Noroeste 0 -- -- 30
2017-11-20 12:00:00 13.1 10 Oeste 15 Sudoeste 0 -- -- 30
2017-11-20 11:00:00 6.1 4 Nordeste 7 Nordeste 0 -- -- 64
2017-11-20 10:00:00 1.9 0 Calma 3 Nordeste 0 -- -- 73
2017-11-20 09:00:00 -2.2 3 Sudoeste 5 Sur 0 -- -- 86
2017-11-20 08:00:00 -4 2 Sudoeste 5 Sur 0 -- -- 89
2017-11-20 07:00:00 -4 5 Sur 7 Sur 0 -- -- 89
2017-11-20 06:00:00 -4 0 Calma 8 Sudoeste 0 -- -- 88
2017-11-20 05:00:00 -3.6 6 Sur 8 Sudoeste 0 -- -- 88
2017-11-20 04:00:00 -3.8 5 Sur 7 Sudoeste 0 -- -- 89
2017-11-20 03:00:00 -2.9 0 Calma 5 Sudoeste 0 -- -- 87
2017-11-20 02:00:00 -1 0 Calma 0 Calma 0 -- -- 82
2017-11-20 01:00:00 -1 0 Calma 9 Sudoeste 0 -- -- 82
2017-11-20 00:00:00 1.2 8 Sudoeste 12 Sudoeste 0 -- -- 75
2017-11-19 23:00:00 0.2 0 Calma 9 Sur 0 -- -- 79
2017-11-19 22:00:00 1 5 Sur 9 Sur 0 -- -- 78
2017-11-19 21:00:00 1.1 8 Sur 10 Sudoeste 0 -- -- 76
2017-11-19 20:00:00 2.3 9 Sur 12 Sur 0 -- -- 73
2017-11-19 19:00:00 4 9 Sur 10 Sur 0 -- -- 73
2017-11-19 18:00:00 9.1 2 Sudeste 8 Nordeste 0 -- -- 56
2017-11-19 17:00:00 13 6 Nordeste 15 Norte 0 -- -- 49
2017-11-19 16:00:00 14.7 12 Norte 16 Norte 0 -- -- 42
2017-11-19 15:00:00 15.5 5 Norte 13 Oeste 0 -- -- 39
2017-11-19 14:00:00 14.7 6 Noroeste 13 Noroeste 0 -- -- 42
2017-11-19 13:00:00 12.3 5 Nordeste 9 Nordeste 0 -- -- 52
2017-11-19 12:00:00 9.3 4 Norte 8 Norte 0 -- -- 60
2017-11-19 11:00:00 4.9 0 Calma 7 Nordeste 0 -- -- 73
2017-11-19 10:00:00 2.3 4 Nordeste 6 Sudoeste 0 -- -- 81
2017-11-19 09:00:00 -1.8 4 Sudoeste 7 Sudoeste 0 -- -- 92
2017-11-19 08:00:00 -4.1 5 Sudoeste 9 Sur 0 -- -- 92
2017-11-19 07:00:00 -3.8 6 Sudoeste 8 Sur 0 -- -- 93
2017-11-19 06:00:00 -4 3 Sur 7 Sudoeste 0 -- -- 92
2017-11-19 05:00:00 -3.7 5 Sur 8 Sur 0 -- -- 92
2017-11-19 04:00:00 -3.4 4 Sur 8 Sur 0 -- -- 91
2017-11-19 03:00:00 -2.9 6 Sudoeste 9 Sur 0 -- -- 92
2017-11-19 02:00:00 -2.1 5 Sudoeste 11 Sudoeste 0 -- -- 91
2017-11-19 01:00:00 -1.4 4 Sur 8 Sur 0 -- -- 91
2017-11-19 00:00:00 -1 5 Sur 10 Sudoeste 0 -- -- 89
2017-11-18 23:00:00 -0.7 4 Sur 10 Sur 0 -- -- 87
2017-11-18 22:00:00 1.2 8 Sur 12 Sur 0 -- -- 83
2017-11-18 21:00:00 2.8 4 Sudoeste 13 Sur 0 -- -- 72
2017-11-18 20:00:00 2.6 11 Sur 14 Sudoeste 0 -- -- 78
2017-11-18 19:00:00 3.7 8 Sudoeste 9 Sudoeste 0 -- -- 71
2017-11-18 18:00:00 10.7 0 Calma 8 Norte 0 -- -- 49
2017-11-18 17:00:00 13.9 5 Norte 11 Norte 0 -- -- 42
2017-11-18 16:00:00 15 8 Norte 14 Nordeste 0 -- -- 41
2017-11-18 15:00:00 15.4 8 Nordeste 13 Nordeste 0 -- -- 38
2017-11-18 14:00:00 14.8 4 Nordeste 9 Norte 0 -- -- 40
2017-11-18 13:00:00 13 4 Norte 6 Norte 0 -- -- 48
2017-11-18 12:00:00 10 4 Norte 8 Nordeste 0 -- -- 58
2017-11-18 11:00:00 7.3 4 Nordeste 6 Norte 0 -- -- 68
2017-11-18 10:00:00 4.6 0 Calma 4 Sudoeste 0 -- -- 79
2017-11-18 09:00:00 -1.1 3 Sur 7 Sur 0 -- -- 92
2017-11-18 08:00:00 -2.4 3 Sudoeste 9 Sudoeste 0 -- -- 93
2017-11-18 07:00:00 -2 6 Sudoeste 10 Sur 0 -- -- 93
2017-11-18 06:00:00 -2.2 5 Sudoeste 8 Sur 0 -- -- 93
2017-11-18 05:00:00 -1.8 0 Calma 10 Sur 0 -- -- 89
2017-11-18 04:00:00 -1.3 9 Sudoeste 10 Sur 0 -- -- 92
2017-11-18 03:00:00 -0.7 5 Sur 6 Sur 0 -- -- 90
2017-11-18 02:00:00 0.1 3 Sudoeste 8 Sur 0 -- -- 87
2017-11-18 01:00:00 1.1 4 Sudoeste 11 Sur 0 -- -- 84
2017-11-18 00:00:00 1.5 5 Sur 6 Sur 0 -- -- 83
2017-11-17 23:00:00 3 3 Sur 5 Sur 0 -- -- 79
2017-11-17 22:00:00 4.5 0 Calma 12 Sudoeste 0 -- -- 71
2017-11-17 21:00:00 4.8 8 Sur 10 Sur 0 -- -- 72
2017-11-17 20:00:00 5.2 10 Sur 12 Sur 0 -- -- 70
2017-11-17 19:00:00 6.1 8 Sur 10 Sur 0 -- -- 66
2017-11-17 18:00:00 10.3 3 Sur 9 Norte 0 -- -- 52
2017-11-17 17:00:00 14.8 7 Nordeste 10 Norte 0 -- -- 41
2017-11-17 16:00:00 17.4 6 Oeste 14 Oeste 0 -- -- 36
2017-11-17 15:00:00 17.3 8 Oeste 15 Oeste 0 -- -- 34
2017-11-17 14:00:00 16.5 10 Oeste 17 Oeste 0 -- -- 37
2017-11-17 13:00:00 15.3 13 Oeste 18 Oeste 0 -- -- 38
2017-11-17 12:00:00 13.5 14 Oeste 21 Oeste 0 -- -- 42
2017-11-17 11:00:00 9.3 3 Nordeste 13 Oeste 0 -- -- 63
2017-11-17 10:00:00 4.8 0 Calma 3 Nordeste 0 -- -- 72
2017-11-17 09:00:00 -0.2 0 Calma 4 Sur 0 -- -- 91
2017-11-17 08:00:00 -2.4 2 Sur -- -- 0 -- -- 93
2017-11-17 07:00:00 -2.3 4 Sur 6 Sur 0 -- -- 92
2017-11-17 06:00:00 -1.7 2 Sur 3 Sur 0 -- -- 89
2017-11-17 05:00:00 -0.7 3 Sudoeste 9 Sudoeste 0 -- -- 89
2017-11-17 04:00:00 -1.6 5 Sur 6 Sur 0 -- -- 89
2017-11-17 03:00:00 -1 4 Sur 9 Sudoeste -- -- -- 87
2017-11-17 02:00:00 -0.5 7 Sur 9 Sudoeste 0 -- -- 85
2017-11-17 01:00:00 -0.6 4 Sudoeste 10 Sur 0 -- -- 84
2017-11-17 00:00:00 0.1 6 Sur 8 Sudoeste 0 -- -- 81
2017-11-16 23:00:00 1 3 Sur 5 Sur 0 -- -- 78
2017-11-16 22:00:00 2.8 4 Sur 11 Sudoeste 0 -- -- 72
2017-11-16 21:00:00 3.8 10 Sudoeste 12 Sur 0 -- -- 68
2017-11-16 20:00:00 3.9 9 Sudoeste 12 Sudoeste 0 -- -- 67
2017-11-16 19:00:00 5.2 10 Sur 12 Sur 0 -- -- 63
2017-11-16 18:00:00 11.8 0 Calma 9 Nordeste 0 -- -- 45
2017-11-16 17:00:00 15.6 8 Norte 10 Nordeste 0 -- -- 34
2017-11-16 16:00:00 17.1 3 Norte 10 Nordeste 0 -- -- 30
2017-11-16 15:00:00 16.5 6 Nordeste 11 Nordeste 0 -- -- 35
2017-11-16 14:00:00 15.7 5 Norte 9 Norte 0 -- -- 34
2017-11-16 13:00:00 13.9 5 Norte 9 Norte 0 -- -- 37
2017-11-16 12:00:00 10.4 6 Nordeste 9 Nordeste 0 -- -- 56
2017-11-16 11:00:00 6.5 3 Norte 5 Norte 0 -- -- 67
2017-11-16 10:00:00 3.5 0 Calma 5 Sudoeste 0 -- -- 76
2017-11-16 09:00:00 -1.7 4 Sur 8 Sur 0 -- -- 91
2017-11-16 08:00:00 -3.4 2 Sur 9 Sudoeste 0 -- -- 93
2017-11-16 07:00:00 -3.5 6 Sudoeste 7 Sur 0 -- -- 93
2017-11-16 06:00:00 -3.5 5 Sur 7 Sudoeste 0 -- -- 92
2017-11-16 05:00:00 -3 6 Sudoeste 10 Sudoeste 0 -- -- 90
2017-11-16 04:00:00 -2.7 8 Sudoeste 10 Sudoeste 0 -- -- 91
2017-11-16 03:00:00 -2.5 0 Calma 5 Sur 0 -- -- 89
2017-11-16 02:00:00 -1.2 2 Sur 8 Sur 0 -- -- 87
2017-11-16 01:00:00 -1.4 5 Sudoeste 7 Sudoeste 0 -- -- 86
2017-11-16 00:00:00 -1 5 Sur 8 Sur 0 -- -- 88
2017-11-15 23:00:00 -0.8 3 Sudoeste 9 Sur 0 -- -- 85
2017-11-15 22:00:00 0.5 7 Sur 10 Sudoeste 0 -- -- 82
2017-11-15 21:00:00 1.9 7 Sudoeste 11 Sudoeste 0 -- -- 79
2017-11-15 20:00:00 3.3 9 Sudoeste 11 Sur 0 -- -- 74
2017-11-15 19:00:00 4.1 6 Sur 8 Sur 0 -- -- 69
2017-11-15 18:00:00 8.9 5 Sudoeste 13 Oeste 0 -- -- 53
2017-11-15 17:00:00 12.7 8 Oeste 22 Sudoeste 0 -- -- 43
2017-11-15 16:00:00 14 15 Sudoeste 26 Sudoeste 0 -- -- 40
2017-11-15 15:00:00 13.9 18 Oeste 25 Oeste 0 -- -- 42
2017-11-15 14:00:00 13.8 15 Oeste 22 Sudoeste 0 -- -- 38
2017-11-15 13:00:00 12.8 13 Sudoeste 19 Sudoeste 0 -- -- 37
2017-11-15 12:00:00 11 9 Oeste 15 Oeste 0 -- -- 48
2017-11-15 11:00:00 6.6 8 Oeste 10 Oeste 0 -- -- 66
2017-11-15 10:00:00 1.8 2 Nordeste 4 Este 0 -- -- 79
2017-11-15 09:00:00 -2.1 2 Oeste 8 Sur 0 -- -- 91
2017-11-15 08:00:00 -4.3 7 Sudoeste 9 Sur 0 -- -- 93
2017-11-15 07:00:00 -4.3 3 Sudoeste 10 Sur 0 -- -- 90
2017-11-15 06:00:00 -4 8 Sudoeste 10 Sur 0 -- -- 92
2017-11-15 05:00:00 -3.7 4 Sudoeste 9 Sudoeste 0 -- -- 91
2017-11-15 04:00:00 -3.6 4 Sudoeste 7 Sudoeste 0 -- -- 90
2017-11-15 03:00:00 -2.6 0 Calma 5 Sur 0 -- -- 89
2017-11-15 02:00:00 -1.9 0 Calma 5 Nordeste 0 -- -- 84
2017-11-15 01:00:00 0.1 3 Nordeste 11 Sur 0 -- -- 77
2017-11-15 00:00:00 1.7 8 Sudoeste 13 Sudoeste 0 -- -- 72
2017-11-14 23:00:00 1.9 9 Sudoeste 14 Sudoeste 0 -- -- 71
2017-11-14 22:00:00 3 8 Sudoeste 15 Sudoeste 0 -- -- 67
2017-11-14 21:00:00 4 11 Sudoeste 17 Sudoeste 0 -- -- 63
2017-11-14 20:00:00 4.1 13 Sudoeste 18 Sudoeste 0 -- -- 62
2017-11-14 19:00:00 5 10 Sudoeste 15 Sudoeste 0 -- -- 59
2017-11-14 18:00:00 7.7 9 Sudoeste 18 Sudoeste 0 -- -- 53
2017-11-14 17:00:00 10.3 12 Sudoeste 23 Sudoeste 0 -- -- 47
2017-11-14 16:00:00 10.5 17 Sudoeste 25 Sudoeste 0 -- -- 46
2017-11-14 15:00:00 10.3 15 Sudoeste 21 Sudoeste 0 -- -- 42
2017-11-14 14:00:00 9.3 11 Sudoeste 19 Sudoeste 0 -- -- 44
2017-11-14 13:00:00 7.2 11 Oeste 20 Oeste 0 -- -- 57
2017-11-14 12:00:00 4.5 13 Sudoeste 23 Sudoeste 0 -- -- 78
2017-11-14 11:00:00 1.1 18 Sudoeste 26 Sudoeste 0 -- -- 96
2017-11-14 10:00:00 -0.7 15 Sudoeste 23 Sudoeste 0 -- -- 99
2017-11-14 09:00:00 -1.2 12 Sudoeste 20 Sudoeste 0 -- -- 98
2017-11-14 08:00:00 -1.9 11 Sudoeste 17 Sudoeste 0 -- -- 95
2017-11-14 07:00:00 -1.4 10 Sudoeste 16 Sudoeste 0 -- -- 94
2017-11-14 06:00:00 -1.5 11 Sudoeste 17 Sudoeste 0 -- -- 95
2017-11-14 05:00:00 -1.6 10 Sudoeste 14 Sudoeste 0 -- -- 94
2017-11-14 04:00:00 -1.4 10 Sudoeste 14 Sudoeste 0 -- -- 94
2017-11-14 03:00:00 -1.2 5 Sudoeste 13 Sudoeste 0 -- -- 93
2017-11-14 02:00:00 -2.1 6 Sudoeste 12 Sudoeste 0 -- -- 94
2017-11-14 01:00:00 -1.9 5 Sudoeste 12 Sudoeste 0 -- -- 92
2017-11-14 00:00:00 -1.2 3 Sudoeste 11 Noroeste 0 -- -- 89
2017-11-13 23:00:00 -0.7 6 Sudoeste 12 Oeste 0 -- -- 88
2017-11-13 22:00:00 1.2 9 Noroeste 24 Noroeste 0 -- -- 83
2017-11-13 21:00:00 1.2 5 Oeste 18 Noroeste 0 -- -- 84
2017-11-13 20:00:00 1.9 9 Sudoeste 27 Noroeste 0 -- -- 84
2017-11-13 19:00:00 3 13 Norte 25 Noroeste 0 -- -- 77
2017-11-13 18:00:00 4.2 18 Norte 44 Norte 0 -- -- 69
2017-11-13 17:00:00 6.1 28 Norte 43 Norte 0 -- -- 60
2017-11-13 16:00:00 6.9 28 Norte 46 Norte 0 -- -- 58
2017-11-13 15:00:00 7.8 30 Norte 40 Norte 0 -- -- 56
2017-11-13 14:00:00 7.7 28 Norte 44 Norte 0 -- -- 58
2017-11-13 13:00:00 8.2 30 Norte 43 Norte 0 -- -- 58
2017-11-13 12:00:00 6.5 30 Norte 46 Norte 0 -- -- 64
2017-11-13 11:00:00 6.1 23 Norte 37 Norte 0 -- -- 74
2017-11-13 10:00:00 5.4 7 Noroeste 29 Noroeste 0 -- -- 82
2017-11-13 09:00:00 4.4 17 Norte 28 Norte 0 -- -- 84
2017-11-13 08:00:00 3.2 13 Norte 24 Norte 0 -- -- 86
2017-11-13 07:00:00 3.9 12 Noroeste 20 Noroeste 0 -- -- 87
2017-11-13 06:00:00 4.9 9 Noroeste 21 Noroeste 0 -- -- 86
2017-11-13 05:00:00 5.9 10 Noroeste 25 Norte 0 -- -- 89
2017-11-13 04:00:00 7.1 16 Norte 30 Norte 0 -- -- 86
2017-11-13 03:00:00 6.4 8 Oeste 14 Noroeste 0 -- -- 89
2017-11-13 02:00:00 6 4 Noroeste 13 Oeste 0 -- -- 87
2017-11-13 01:00:00 6.9 7 Oeste 18 Oeste 0 -- -- 84
2017-11-13 00:00:00 6.5 8 Oeste 13 Sudoeste 0 -- -- 82
2017-11-12 23:00:00 3.6 10 Sudoeste 13 Sudoeste 0 -- -- 90
2017-11-12 22:00:00 2.4 9 Sudoeste 10 Sudoeste 0 -- -- 89
2017-11-12 21:00:00 3.7 8 Sudoeste 11 Sur 0 -- -- 85
2017-11-12 20:00:00 5.7 5 Sudoeste 9 Sur 0 -- -- 76
2017-11-12 19:00:00 8.8 6 Noroeste 15 Noroeste 0 -- -- 66
2017-11-12 18:00:00 10.5 9 Oeste 22 Noroeste 0 -- -- 59
2017-11-12 17:00:00 13 19 Noroeste 27 Noroeste 0 -- -- 52
2017-11-12 16:00:00 14.2 18 Oeste 26 Oeste 0 -- -- 49
2017-11-12 15:00:00 14 17 Oeste 26 Oeste 0 -- -- 52
2017-11-12 14:00:00 13.6 16 Oeste 33 Sudoeste 0 -- -- 54
2017-11-12 13:00:00 12.4 18 Sudoeste 27 Sudoeste 0 -- -- 62
2017-11-12 12:00:00 11.1 18 Oeste 28 Oeste 0 -- -- 66
2017-11-12 11:00:00 9.8 18 Sudoeste 24 Sudoeste 0 -- -- 72
2017-11-12 10:00:00 6.7 7 Sudoeste 15 Sudoeste 0 -- -- 95
2017-11-12 09:00:00 1.7 2 Norte 5 Sur 0 -- -- 97
2017-11-12 08:00:00 0.9 6 Sudoeste 13 Sudoeste 0 -- -- 97
2017-11-12 07:00:00 0.4 8 Sudoeste 10 Sudoeste 0 -- -- 98
2017-11-12 06:00:00 0.5 3 Sudoeste 10 Oeste 0 -- -- 95
2017-11-12 05:00:00 2.9 5 Sudoeste 14 Sudoeste 0 -- -- 94
2017-11-12 04:00:00 2.2 10 Sudoeste 14 Sudoeste 0 -- -- 98
2017-11-12 03:00:00 -0.2 5 Sudoeste 6 Sur 0 -- -- 97
2017-11-12 02:00:00 0.5 4 Sudoeste 9 Sudoeste 0 -- -- 97
2017-11-12 01:00:00 0.5 5 Sudoeste 9 Sudoeste 0 -- -- 97
2017-11-12 00:00:00 0.7 3 Sudoeste 11 Sudoeste 0 -- -- 96
2017-11-11 23:00:00 1.1 7 Sudoeste 12 Sudoeste 0 -- -- 96
2017-11-11 22:00:00 1.6 10 Sudoeste 12 Sudoeste 0 -- -- 95
2017-11-11 21:00:00 2.1 9 Sur 12 Sur 0 -- -- 94
2017-11-11 20:00:00 3.2 7 Sudoeste 10 Sudoeste 0 -- -- 90
2017-11-11 19:00:00 5.4 4 Sudoeste 10 Oeste 0 -- -- 85
2017-11-11 18:00:00 9.1 7 Oeste 13 Oeste 0 -- -- 76
2017-11-11 17:00:00 11 10 Oeste 18 Noroeste 0 -- -- 67
2017-11-11 16:00:00 11.6 10 Noroeste 19 Noroeste 0 -- -- 66
2017-11-11 15:00:00 11.6 10 Oeste 24 Oeste 0 -- -- 66
2017-11-11 14:00:00 9.9 10 Sudoeste 19 Oeste 0 -- -- 75
2017-11-11 13:00:00 9.7 12 Sudoeste 21 Oeste 0 -- -- 76
2017-11-11 12:00:00 8.8 10 Oeste 19 Oeste 0.2 -- -- 79
2017-11-11 11:00:00 7.7 10 Noroeste 17 Sudoeste 0 -- -- 87
2017-11-11 10:00:00 6.8 7 Oeste 12 Oeste 0 -- -- 90
2017-11-11 09:00:00 3.7 6 Sudoeste 15 Sudoeste 0 -- -- 99
2017-11-11 08:00:00 2.7 10 Sudoeste 17 Sudoeste 0 -- -- 99
2017-11-11 07:00:00 2.1 9 Sudoeste 16 Sudoeste 0 -- -- 97
2017-11-11 06:00:00 1.3 10 Sur 13 Sudoeste 0 -- -- 98
2017-11-11 05:00:00 1.8 9 Sudoeste 12 Sur 0 -- -- 98
2017-11-11 04:00:00 2.4 9 Sur 12 Sur 0 -- -- 97
2017-11-11 03:00:00 3.5 7 Sur 11 Oeste 0 -- -- 95
2017-11-11 02:00:00 5.7 9 Sudoeste 12 Sudoeste 0 -- -- 93
2017-11-11 01:00:00 6 5 Sudoeste 9 Oeste 0 -- -- 97
2017-11-11 00:00:00 5.6 7 Sudoeste 13 Sudoeste 0 -- -- 98
2017-11-10 23:00:00 4.2 8 Sudoeste 12 Sudoeste 0 -- -- 98
2017-11-10 22:00:00 3.9 7 Sur 11 Noroeste 0 -- -- 96
2017-11-10 21:00:00 3.6 5 Oeste 9 Sur 0 -- -- 94
2017-11-10 20:00:00 5.4 5 Oeste 9 Oeste 0 -- -- 93
2017-11-10 19:00:00 8.2 3 Noroeste 12 Norte 0 -- -- 88
2017-11-10 18:00:00 9.2 10 Noroeste 17 Noroeste 0 -- -- 88
2017-11-10 17:00:00 7.9 11 Sudoeste 20 Sudoeste 0 -- -- 93
2017-11-10 16:00:00 7.4 10 Sudoeste 15 Sudoeste 0 -- -- 94
2017-11-10 15:00:00 7.6 11 Sudoeste 20 Sudoeste 0 -- -- 87
2017-11-10 14:00:00 7.6 12 Sudoeste 21 Sudoeste 0 -- -- 90
2017-11-10 13:00:00 5.9 17 Sudoeste 22 Sur 0 -- -- 91
2017-11-10 12:00:00 5 16 Sudoeste 27 Sudoeste 0 -- -- 94
2017-11-10 11:00:00 4.6 15 Sudoeste 23 Sudoeste 0 -- -- 91
2017-11-10 10:00:00 4.3 17 Sudoeste 29 Sudoeste 0 -- -- 87
2017-11-10 09:00:00 3.6 12 Sudoeste 19 Sudoeste 0 -- -- 90
2017-11-10 08:00:00 3.2 13 Sudoeste 21 Sudoeste 0 -- -- 91
2017-11-10 07:00:00 3 16 Sudoeste 22 Sudoeste 0 -- -- 93
2017-11-10 06:00:00 2.7 12 Sudoeste 21 Sudoeste 0 -- -- 94
2017-11-10 05:00:00 3.2 9 Sudoeste 14 Sudoeste 0 -- -- 87
2017-11-10 04:00:00 3.1 8 Sudoeste 13 Sudoeste 0 -- -- 82
2017-11-10 03:00:00 2.8 9 Sudoeste 19 Sudoeste 0 -- -- 82
2017-11-10 02:00:00 1.6 8 Sudoeste 11 Sudoeste 0 -- -- 86
2017-11-10 01:00:00 -0.6 7 Sudoeste 12 Sudoeste 0 -- -- 93
2017-11-10 00:00:00 -1.6 9 Sudoeste 11 Sudoeste 0 -- -- 90
2017-11-09 23:00:00 0.4 3 Sudoeste 9 Oeste 0 -- -- 83
2017-11-09 22:00:00 1.1 6 Sur 9 Sudoeste 0 -- -- 85
2017-11-09 21:00:00 2.2 4 Sur 14 Noroeste 0 -- -- 81
2017-11-09 20:00:00 4.1 14 Noroeste 24 Norte 0 -- -- 76
2017-11-09 19:00:00 4.7 9 Noroeste 19 Noroeste 0 -- -- 74
2017-11-09 18:00:00 5.8 19 Norte 30 Noroeste 0 -- -- 68
2017-11-09 17:00:00 7 21 Norte 31 Noroeste 0 -- -- 63
2017-11-09 16:00:00 7 16 Noroeste 32 Noroeste 0 -- -- 67
2017-11-09 15:00:00 6.6 19 Noroeste 36 Noroeste 0 -- -- 71
2017-11-09 14:00:00 7.1 22 Norte 35 Norte 0 -- -- 70
2017-11-09 13:00:00 5.9 21 Norte 32 Norte 0 -- -- 77
2017-11-09 12:00:00 4.4 22 Noroeste 34 Noroeste 0 -- -- 86
2017-11-09 11:00:00 4.1 25 Noroeste 34 Noroeste 0 -- -- 86
2017-11-09 10:00:00 2.8 12 Noroeste 18 Noroeste 0.2 -- -- 90
2017-11-09 09:00:00 2 3 Noroeste 12 Noroeste 0 -- -- 91
2017-11-09 08:00:00 1.5 5 Noroeste 17 Noroeste 0 -- -- 95
2017-11-09 07:00:00 0.7 5 Sudoeste 12 Sudoeste 0 -- -- 96
2017-11-09 06:00:00 -0.3 5 Sudoeste 12 Sudoeste 0 -- -- 96
2017-11-09 05:00:00 -0.3 6 Sudoeste 14 Oeste 0 -- -- 95
2017-11-09 04:00:00 0.6 10 Oeste 17 Oeste 0 -- -- 95
2017-11-09 03:00:00 0.6 12 Sudoeste 21 Noroeste 0 -- -- 94
2017-11-09 02:00:00 -1.2 5 Sur 6 Sur 0 -- -- 95
2017-11-09 01:00:00 -1.1 0 Calma 8 Noroeste 0 -- -- 94
2017-11-09 00:00:00 -0.7 7 Sur 14 Noroeste 0 -- -- 93
2017-11-08 23:00:00 0.7 8 Noroeste 15 Noroeste 0 -- -- 93
2017-11-08 22:00:00 1.3 3 Noroeste 15 Norte 0 -- -- 90
2017-11-08 21:00:00 2.2 7 Noroeste 16 Norte 0 -- -- 87
2017-11-08 20:00:00 3.1 3 Sudoeste 5 Sudoeste 0 -- -- 92
2017-11-08 19:00:00 3.1 3 Norte 44 Norte 1.2 -- -- 92
2017-11-08 18:00:00 4.2 34 Norte 45 Norte 0 -- -- 87
2017-11-08 17:00:00 8 15 Oeste 24 Noroeste 0 -- -- 56
2017-11-08 16:00:00 8.3 13 Noroeste 30 Noroeste 0 -- -- 56
2017-11-08 15:00:00 8.7 9 Noroeste 27 Noroeste 0 -- -- 55
2017-11-08 14:00:00 8.4 9 Noroeste 24 Norte 0 -- -- 57
2017-11-08 13:00:00 8 13 Noroeste 34 Norte 0 -- -- 61
2017-11-08 12:00:00 6.6 12 Norte 22 Norte 0 -- -- 68
2017-11-08 11:00:00 5.8 12 Norte 25 Norte 0 -- -- 72
2017-11-08 10:00:00 4.5 9 Noroeste 17 Noroeste 0 -- -- 78
2017-11-08 09:00:00 3.8 4 Noroeste 9 Noroeste 0 -- -- 86
2017-11-08 08:00:00 2.3 2 Oeste 15 Norte 0 -- -- 86
2017-11-08 07:00:00 3.2 6 Norte 14 Noroeste 0 -- -- 86
2017-11-08 06:00:00 4.3 8 Oeste 15 Oeste 0 -- -- 83
2017-11-08 05:00:00 5.1 8 Noroeste 13 Oeste 0 -- -- 80
2017-11-08 04:00:00 5.2 7 Noroeste 15 Noroeste 0 -- -- 83
2017-11-08 03:00:00 6.2 10 Noroeste 18 Norte 0 -- -- 82
2017-11-08 02:00:00 7 8 Noroeste 19 Noroeste 0 -- -- 80
2017-11-08 01:00:00 7 9 Oeste 14 Sudoeste 0 -- -- 76
2017-11-08 00:00:00 6.2 5 Oeste 12 Sudoeste 0 -- -- 78
2017-11-07 23:00:00 5.8 9 Sudoeste 14 Sur 0 -- -- 77
2017-11-07 22:00:00 6 7 Sudoeste 12 Sudoeste 0 -- -- 77
2017-11-07 21:00:00 5.6 8 Sudoeste 13 Sudoeste 0 -- -- 79
2017-11-07 20:00:00 4.5 8 Sudoeste 11 Sudoeste 0 -- -- 82
2017-11-07 19:00:00 6 5 Sudoeste 12 Sudoeste 0 -- -- 74
2017-11-07 18:00:00 9.3 9 Oeste 24 Oeste 0 -- -- 61
2017-11-07 17:00:00 11.7 19 Oeste 28 Oeste 0 -- -- 53
2017-11-07 16:00:00 12.3 17 Sudoeste 27 Oeste 0 -- -- 52
2017-11-07 15:00:00 11.7 18 Sudoeste 27 Sudoeste 0 -- -- 56
2017-11-07 14:00:00 10.7 15 Sudoeste 27 Oeste 0 -- -- 61
2017-11-07 13:00:00 9.4 19 Sudoeste 31 Sudoeste 0 -- -- 65
2017-11-07 12:00:00 7.7 18 Sudoeste 28 Oeste 0 -- -- 72
2017-11-07 11:00:00 6.3 15 Oeste 23 Oeste 0 -- -- 76
2017-11-07 10:00:00 4.6 15 Oeste 21 Oeste 0 -- -- 82
2017-11-07 09:00:00 2.7 13 Sudoeste 18 Sudoeste 0 -- -- 86
2017-11-07 08:00:00 1.1 9 Sudoeste 20 Sudoeste 0 -- -- 90
2017-11-07 07:00:00 1.1 10 Sudoeste 15 Sudoeste 0 -- -- 92
2017-11-07 06:00:00 0.3 11 Sudoeste 14 Sudoeste 0 -- -- 95
2017-11-07 05:00:00 -0.3 7 Sudoeste 13 Sudoeste 0 -- -- 92
2017-11-07 04:00:00 0.6 9 Sudoeste 14 Sudoeste 0 -- -- 90
2017-11-07 03:00:00 2.1 10 Oeste 18 Oeste 0 -- -- 87
2017-11-07 02:00:00 2.6 9 Oeste 20 Sudoeste 0 -- -- 86
2017-11-07 01:00:00 2.3 8 Sudoeste 20 Noroeste 0 -- -- 88
2017-11-07 00:00:00 3 12 Oeste 32 Noroeste 0 -- -- 85
2017-11-06 23:00:00 3.6 23 Norte 31 Noroeste 0 -- -- 80
2017-11-06 22:00:00 3.7 11 Noroeste 23 Noroeste 0 -- -- 83
2017-11-06 21:00:00 3.8 13 Norte 21 Norte 0 -- -- 80
2017-11-06 20:00:00 4.7 13 Norte 18 Norte 0 -- -- 76
2017-11-06 19:00:00 5.3 8 Noroeste 22 Noroeste 0 -- -- 73
2017-11-06 18:00:00 6.8 19 Norte 32 Norte 0 -- -- 68
2017-11-06 17:00:00 8.2 19 Norte 33 Norte 0 -- -- 62
2017-11-06 16:00:00 8.6 25 Norte 36 Norte 0 -- -- 59
2017-11-06 15:00:00 9.4 24 Norte 37 Norte 0 -- -- 61
2017-11-06 14:00:00 8.7 23 Noroeste 38 Norte 0 -- -- 61
2017-11-06 13:00:00 8.1 27 Norte 39 Norte 0 -- -- 67
2017-11-06 12:00:00 7.4 19 Norte 33 Norte 0 -- -- 77
2017-11-06 11:00:00 6.5 16 Noroeste 31 Noroeste 0 -- -- 81
2017-11-06 10:00:00 5.2 18 Noroeste 27 Noroeste 0 -- -- 85
2017-11-06 09:00:00 4.4 11 Noroeste 18 Noroeste 0 -- -- 89
2017-11-06 08:00:00 2.8 8 Noroeste 15 Noroeste 0 -- -- 93
2017-11-06 07:00:00 3.6 8 Noroeste 18 Oeste 0 -- -- 92
2017-11-06 06:00:00 3.1 8 Noroeste 13 Oeste 0 -- -- 96
2017-11-06 05:00:00 1.6 9 Oeste 12 Oeste 0 -- -- 98
2017-11-06 04:00:00 -0.2 7 Oeste 9 Sudoeste 0 -- -- 97
2017-11-06 03:00:00 -0.7 5 Sudoeste 11 Sudoeste 0 -- -- 95
2017-11-06 02:00:00 -0.3 7 Sudoeste 9 Sudoeste 0 -- -- 94
2017-11-06 01:00:00 0.6 7 Sudoeste 9 Sudoeste 0 -- -- 94
2017-11-06 00:00:00 2.3 4 Sudoeste 13 Noroeste 0 -- -- 90
2017-11-05 23:00:00 4.1 7 Noroeste 15 Noroeste 0 -- -- 85
2017-11-05 22:00:00 5.2 10 Norte 17 Noroeste 0 -- -- 82
2017-11-05 21:00:00 5.4 7 Noroeste 12 Norte 0 -- -- 82
2017-11-05 20:00:00 6.3 9 Norte 15 Norte 0 -- -- 79
2017-11-05 19:00:00 7.7 12 Norte 19 Norte 0 -- -- 76
2017-11-05 18:00:00 8.8 8 Noroeste 17 Noroeste 0 -- -- 68
2017-11-05 17:00:00 9.1 11 Noroeste 23 Noroeste 0 -- -- 69
2017-11-05 16:00:00 9.2 16 Noroeste 26 Noroeste 0 -- -- 67
2017-11-05 15:00:00 9.7 18 Noroeste 33 Oeste 0 -- -- 62
2017-11-05 14:00:00 9 18 Noroeste 27 Noroeste 0 -- -- 69
2017-11-05 13:00:00 8.4 18 Noroeste 30 Noroeste 0 -- -- 71
2017-11-05 12:00:00 8.1 14 Noroeste 23 Noroeste 0 -- -- 76
2017-11-05 11:00:00 7.6 9 Norte 23 Norte 0 -- -- 79
2017-11-05 10:00:00 6.4 6 Noroeste 12 Oeste 0 -- -- 83
2017-11-05 09:00:00 5.9 3 Noroeste 18 Norte 0 -- -- 85
2017-11-05 08:00:00 5.8 4 Norte 16 Norte 0 -- -- 85
2017-11-05 07:00:00 5.9 5 Norte 18 Norte 0.2 -- -- 86
2017-11-05 06:00:00 6.6 15 Norte 24 Noroeste 0 -- -- 88
2017-11-05 05:00:00 7 8 Norte 13 Norte 0 -- -- 91
2017-11-05 04:00:00 7.5 6 Norte 14 Norte 0 -- -- 91
2017-11-05 03:00:00 7.7 10 Norte 25 Norte 0 -- -- 90
2017-11-05 02:00:00 8.2 9 Noroeste 21 Norte 0 -- -- 90
2017-11-05 01:00:00 8.5 5 Noroeste 13 Norte 0 -- -- 88
2017-11-05 00:00:00 8.9 6 Noroeste 15 Noroeste 0 -- -- 89
2017-11-04 23:00:00 9 9 Noroeste 17 Noroeste 0 -- -- 89
2017-11-04 22:00:00 9.6 13 Noroeste 22 Noroeste 0 -- -- 90
2017-11-04 21:00:00 9.8 9 Noroeste 22 Noroeste 0 -- -- 92
2017-11-04 20:00:00 10.3 8 Noroeste 15 Oeste 0.8 -- -- 91
2017-11-04 19:00:00 10.8 6 Sudoeste 12 Sudoeste 0 -- -- 85
2017-11-04 18:00:00 11.4 6 Sudoeste 17 Oeste 0 -- -- 82
2017-11-04 17:00:00 12.2 12 Oeste 27 Oeste 0 -- -- 77
2017-11-04 16:00:00 13.4 11 Oeste 18 Oeste 0 -- -- 68
2017-11-04 15:00:00 12.8 9 Oeste 16 Sudoeste 0 -- -- 73
2017-11-04 14:00:00 12.3 4 Oeste 17 Oeste 0 -- -- 78
2017-11-04 13:00:00 11.8 4 Oeste 15 Oeste 0 -- -- 82
2017-11-04 12:00:00 10.6 10 Oeste 14 Sudoeste 0 -- -- 85
2017-11-04 11:00:00 9.8 7 Oeste 13 Sudoeste 0 -- -- 92
2017-11-04 10:00:00 8.9 10 Oeste 15 Oeste 1 -- -- 95
2017-11-04 09:00:00 8.5 6 Sudoeste 18 Sudoeste 1.2 -- -- 95
2017-11-04 08:00:00 7.6 7 Sur 9 Sudoeste 0 -- -- 97
2017-11-04 07:00:00 7.8 0 Calma 4 Norte 0 -- -- 96
2017-11-04 06:00:00 8.5 0 Calma 5 Sur 0 -- -- 94
2017-11-04 05:00:00 8.8 0 Calma 7 Norte 0 -- -- 95
2017-11-04 04:00:00 9.1 6 Este 18 Sur 2.8 -- -- 94
2017-11-04 03:00:00 7.9 6 Sur 11 Sudoeste 0 -- -- 93
2017-11-04 02:00:00 6.6 3 Sur 8 Sur 0 -- -- 95
2017-11-04 01:00:00 5.5 3 Sudoeste 9 Sur 0 -- -- 94
2017-11-04 00:00:00 6.2 5 Sur 9 Sudoeste 0 -- -- 91
2017-11-03 23:00:00 8.2 0 Calma 8 Sur 0 -- -- 84
2017-11-03 22:00:00 10 5 Sur 15 Sudoeste 0 -- -- 80
2017-11-03 21:00:00 10.8 7 Sur 27 Sudeste 0 -- -- 77
2017-11-03 20:00:00 10 6 Sur 18 Sur 0 -- -- 76
2017-11-03 19:00:00 11.3 11 Sur 21 Sur 0 -- -- 69
2017-11-03 18:00:00 13 13 Sur 25 Sur 0 -- -- 63
2017-11-03 17:00:00 15.1 15 Sur 30 Sur 0 -- -- 56
2017-11-03 16:00:00 16.1 18 Sur 30 Sur 0 -- -- 55
2017-11-03 15:00:00 16.3 11 Sudoeste 25 Sur 0 -- -- 57
2017-11-03 14:00:00 15.2 14 Sudoeste 23 Sudoeste 0 -- -- 63
2017-11-03 13:00:00 14.2 14 Oeste 23 Oeste 0 -- -- 70
2017-11-03 12:00:00 12.9 5 Norte 8 Noroeste 0 -- -- 80
2017-11-03 11:00:00 12.1 0 Calma 5 Nordeste 0.2 -- -- 79
2017-11-03 10:00:00 11.4 4 Sudeste 6 Sudeste 0 -- -- 80
2017-11-03 09:00:00 9.4 4 Sur 6 Sudeste 0 -- -- 92
2017-11-03 08:00:00 8.7 2 Sur 16 Sur 0.2 -- -- 91
2017-11-03 07:00:00 8.9 12 Sudoeste 50 Sudoeste 0.8 -- -- 92
2017-11-03 06:00:00 13.2 11 Sur 21 Sur 0 -- -- 69
2017-11-03 05:00:00 12.7 4 Sudoeste 22 Sudoeste 0 -- -- 67
2017-11-03 04:00:00 13.2 13 Sur 26 Sur 0 -- -- 65
2017-11-03 03:00:00 8.1 4 Nordeste 10 Noroeste 0 -- -- 84
2017-11-03 02:00:00 7.4 6 Norte 13 Nordeste 0 -- -- 83
2017-11-03 01:00:00 8.2 3 Nordeste 8 Norte 0 -- -- 80
2017-11-03 00:00:00 10.9 2 Este 14 Sur 0 -- -- 70
2017-11-02 23:00:00 12.2 6 Sur 23 Sur 0 -- -- 67
2017-11-02 22:00:00 10.5 6 Sudeste 17 Sudoeste 0 -- -- 77
2017-11-02 21:00:00 10.2 0 Calma 8 Sudoeste 0 -- -- 76
2017-11-02 20:00:00 11.6 4 Sur 8 Sudoeste 0 -- -- 71
2017-11-02 19:00:00 13.3 6 Sur 18 Sur 0 -- -- 65
2017-11-02 18:00:00 13.9 12 Sudoeste 22 Sur 0 -- -- 62
2017-11-02 17:00:00 14.6 13 Sur 30 Sudoeste 0 -- -- 59
2017-11-02 16:00:00 16 16 Sudoeste 30 Sudoeste 0 -- -- 55
2017-11-02 15:00:00 16.3 19 Sur 30 Sudoeste 0 -- -- 53
2017-11-02 14:00:00 15.7 22 Sudoeste 39 Sudoeste 0 -- -- 56
2017-11-02 13:00:00 16.4 22 Sudoeste 35 Sudoeste 0 -- -- 55
2017-11-02 12:00:00 16.3 15 Sudoeste 29 Sur 0 -- -- 58
2017-11-02 11:00:00 11.9 7 Norte 9 Norte 0 -- -- 79
2017-11-02 10:00:00 9.3 4 Norte 7 Norte 0 -- -- 90
2017-11-02 09:00:00 6.2 0 Calma 6 Sur 0 -- -- 95
2017-11-02 08:00:00 5.5 4 Sur 11 Sur 0 -- -- 94
2017-11-02 07:00:00 6 3 Sur 8 Sur 0 -- -- 92
2017-11-02 06:00:00 6.6 0 Calma 4 Sur 0 -- -- 93
2017-11-02 05:00:00 6.6 0 Calma 9 Sur 0 -- -- 91
2017-11-02 04:00:00 6.9 7 Sur 10 Sur 0 -- -- 90
2017-11-02 03:00:00 6.3 6 Sudoeste 9 Sur 0 -- -- 89
2017-11-02 02:00:00 5.9 5 Sur 12 Sudoeste 0 -- -- 90
2017-11-02 01:00:00 6.5 6 Sudoeste 10 Sur 0 -- -- 87
2017-11-02 00:00:00 7.5 4 Sudoeste 6 Sudoeste 0 -- -- 86
2017-11-01 23:00:00 9.1 2 Nordeste 9 Noroeste 0 -- -- 77
2017-11-01 22:00:00 11.6 6 Oeste 12 Sur 0 -- -- 71
2017-11-01 21:00:00 12.5 8 Sur 17 Sur 0 -- -- 65
2017-11-01 20:00:00 13.1 10 Sur 21 Sur 0 -- -- 63
2017-11-01 19:00:00 13.2 12 Sur 19 Sur 0 -- -- 62
2017-11-01 18:00:00 14.5 11 Sur 23 Sur 0 -- -- 58
2017-11-01 17:00:00 16.9 15 Sur 25 Sur 0 -- -- 49
2017-11-01 16:00:00 18.4 7 Sudoeste 23 Sudoeste 0 -- -- 46
2017-11-01 15:00:00 18.1 9 Sur 22 Sudoeste 0 -- -- 47
2017-11-01 14:00:00 18.7 8 Sudoeste 21 Sur 0 -- -- 46
2017-11-01 13:00:00 18.2 12 Sur 22 Sudoeste 0 -- -- 42
2017-11-01 12:00:00 16.7 10 Oeste 18 Oeste 0 -- -- 50
2017-11-01 11:00:00 12.9 6 Norte 9 Norte 0 -- -- 70
2017-11-01 10:00:00 9.4 4 Norte 6 Norte 0 -- -- 83
2017-11-01 09:00:00 5.1 0 Calma 8 Sudoeste 0 -- -- 98
2017-11-01 08:00:00 1.4 4 Sudoeste 6 Sudoeste 0 -- -- 97
2017-11-01 07:00:00 1.8 0 Calma 3 Noroeste 0 -- -- 96
2017-11-01 06:00:00 1.9 3 Sudoeste 10 Sudoeste 0 -- -- 96
2017-11-01 05:00:00 1.9 3 Sudoeste 8 Sudoeste 0 -- -- 95
2017-11-01 04:00:00 2.4 3 Sudoeste 5 Sur 0 -- -- 95
2017-11-01 03:00:00 2.8 0 Calma 4 Sudoeste 0 -- -- 93
2017-11-01 02:00:00 4.2 3 Sudoeste 9 Sudoeste 0 -- -- 91
2017-11-01 01:00:00 4 6 Sudoeste 7 Sudoeste 0 -- -- 91
2017-11-01 00:00:00 5.2 8 Sudoeste 11 Sur 0 -- -- 89
2017-10-31 23:00:00 4.8 9 Sudoeste 11 Sudoeste 0 -- -- 89
2017-10-31 22:00:00 6.2 6 Sudoeste 10 Sur 0 -- -- 84
2017-10-31 21:00:00 7.6 3 Sudoeste 7 Sur 0 -- -- 80
2017-10-31 20:00:00 10.2 2 Norte 13 Sudoeste 0 -- -- 73
2017-10-31 19:00:00 11.9 10 Sur 14 Sur 0 -- -- 68
2017-10-31 18:00:00 15.8 7 Sudoeste 15 Sudoeste 0 -- -- 54
2017-10-31 17:00:00 18.3 7 Oeste 14 Sudoeste 0 -- -- 42
2017-10-31 16:00:00 18.8 8 Oeste 18 Oeste 0 -- -- 43
2017-10-31 15:00:00 18.6 8 Oeste 15 Oeste 0 -- -- 42
2017-10-31 14:00:00 17.5 7 Noroeste 14 Noroeste 0 -- -- 46
2017-10-31 13:00:00 15.3 5 Nordeste 13 Nordeste 0 -- -- 55
2017-10-31 12:00:00 12.4 6 Norte 9 Nordeste 0 -- -- 64
2017-10-31 11:00:00 8.9 3 Norte 8 Este 0 -- -- 74
2017-10-31 10:00:00 5.1 3 Nordeste 6 Nordeste 0 -- -- 82
2017-10-31 09:00:00 1.8 0 Calma 8 Sudoeste 0 -- -- 96
2017-10-31 08:00:00 -1.6 4 Sudoeste 7 Sur 0 -- -- 96
2017-10-31 07:00:00 -1.5 4 Sudoeste 8 Sur 0 -- -- 95
2017-10-31 06:00:00 -1.2 4 Sudoeste 8 Sur 0 -- -- 96
2017-10-31 05:00:00 -1 6 Sudoeste 10 Sur 0 -- -- 96
2017-10-31 04:00:00 -0.7 6 Sudoeste 12 Sur 0 -- -- 94
2017-10-31 03:00:00 -0.1 5 Sudoeste 8 Sudoeste 0 -- -- 95
2017-10-31 02:00:00 0.3 4 Sudoeste 9 Sur 0 -- -- 94
2017-10-31 01:00:00 1 2 Sudoeste 6 Sur 0 -- -- 91
2017-10-31 00:00:00 2.2 4 Sudoeste 8 Sudoeste 0 -- -- 92
2017-10-30 23:00:00 2.7 6 Sur 9 Sudoeste 0 -- -- 90
2017-10-30 22:00:00 4.8 3 Sudoeste 9 Norte 0 -- -- 90
2017-10-30 21:00:00 6.9 3 Norte 8 Norte 0 -- -- 82
2017-10-30 20:00:00 9.2 0 Calma 18 Noroeste 0 -- -- 73
2017-10-30 19:00:00 11.4 12 Noroeste 18 Norte 0 -- -- 67
2017-10-30 18:00:00 13.9 9 Norte 19 Norte 0 -- -- 57
2017-10-30 17:00:00 15.9 11 Norte 21 Norte 0 -- -- 54
2017-10-30 16:00:00 16.6 12 Noroeste 27 Norte 0 -- -- 50
2017-10-30 15:00:00 16.6 14 Norte 21 Norte 0 -- -- 51
2017-10-30 14:00:00 15.8 11 Norte 20 Norte 0 -- -- 55
2017-10-30 13:00:00 14.6 6 Nordeste 13 Norte 0 -- -- 60
2017-10-30 12:00:00 13 4 Oeste 14 Noroeste 0 -- -- 64
2017-10-30 11:00:00 11.8 7 Sudoeste 15 Oeste 0 -- -- 69
2017-10-30 10:00:00 9.8 9 Sudoeste 14 Sudoeste 0 -- -- 78
2017-10-30 09:00:00 6.9 8 Sudoeste 12 Sudoeste 0 -- -- 94
2017-10-30 08:00:00 2.3 8 Sudoeste 12 Sudoeste 0 -- -- 97
2017-10-30 07:00:00 2 9 Sudoeste 13 Sur 0 -- -- 97
2017-10-30 06:00:00 1.5 7 Sudoeste 11 Sudoeste 0 -- -- 96
2017-10-30 05:00:00 1.4 9 Sudoeste 12 Sudoeste 0 -- -- 95
2017-10-30 04:00:00 1.4 9 Sur 12 Sur 0 -- -- 95
2017-10-30 03:00:00 1.8 7 Sudoeste 10 Sur 0 -- -- 94
2017-10-30 02:00:00 1.8 8 Sudoeste 12 Sur 0 -- -- 95
2017-10-30 01:00:00 2.7 0 Calma 11 Sudoeste 0 -- -- 93
2017-10-30 00:00:00 3.1 6 Sudoeste 11 Sur 0 -- -- 91
2017-10-29 23:00:00 3.4 8 Sudoeste 10 Sudoeste 0 -- -- 89
2017-10-29 22:00:00 4.4 3 Sudoeste 11 Sudoeste 0 -- -- 84
2017-10-29 21:00:00 5 6 Sur 10 Sudoeste 0 -- -- 81
2017-10-29 20:00:00 7.6 8 Sur 10 Oeste 0 -- -- 69
2017-10-29 19:00:00 11.6 4 Sur 13 Noroeste 0 -- -- 53
2017-10-29 18:00:00 16.3 9 Noroeste 13 Noroeste 0 -- -- 40
2017-10-29 17:00:00 18.1 5 Norte 13 Nordeste 0 -- -- 26
2017-10-29 16:00:00 18.1 9 Nordeste 18 Norte 0 -- -- 26
2017-10-29 15:00:00 18 8 Norte 20 Nordeste 0 -- -- 26
2017-10-29 14:00:00 17.8 7 Noroeste 14 Norte 0 -- -- 40
2017-10-29 13:00:00 16.2 6 Oeste 15 Oeste 0 -- -- 39
2017-10-29 12:00:00 14.6 10 Sudoeste 19 Sudoeste 0 -- -- 56
2017-10-29 11:00:00 12.2 13 Oeste 22 Oeste 0 -- -- 70
2017-10-29 10:00:00 10.2 11 Sudoeste 18 Sudoeste 0 -- -- 79
2017-10-29 09:00:00 7.5 6 Sudoeste 15 Sur 0 -- -- 87
2017-10-29 08:00:00 2.5 3 Este 13 Sudoeste 0 -- -- 94
2017-10-29 07:00:00 3.9 8 Sudoeste 15 Sudoeste 0 -- -- 91
2017-10-29 06:00:00 4.6 9 Sudoeste 17 Sudoeste 0 -- -- 90
2017-10-29 05:00:00 3.3 9 Sudoeste 13 Sudoeste 0 -- -- 97
2017-10-29 04:00:00 3 2 Sudoeste 11 Sudoeste 0 -- -- 93
2017-10-29 03:00:00 2.8 3 Sur 13 Sudoeste 0 -- -- 91
2017-10-29 02:00:00 2.9 10 Sudoeste 13 Sudoeste 0 -- -- 93
2017-10-29 01:00:00 3.4 6 Sudoeste 12 Sudoeste 0 -- -- 91
2017-10-29 00:00:00 4.8 5 Sudoeste 10 Sudoeste 0 -- -- 88
2017-10-28 23:00:00 6 9 Sudoeste 11 Sur 0 -- -- 86
2017-10-28 22:00:00 7 8 Sudoeste 12 Sur 0 -- -- 82
2017-10-28 21:00:00 10.8 2 Oeste 14 Noroeste 0 -- -- 68
2017-10-28 20:00:00 13.5 11 Noroeste 16 Noroeste 0 -- -- 59
2017-10-28 19:00:00 16.7 10 Noroeste 16 Noroeste 0 -- -- 49
2017-10-28 18:00:00 18.7 11 Noroeste 17 Noroeste 0 -- -- 44
2017-10-28 17:00:00 19.3 7 Oeste 20 Oeste 0 -- -- 46
2017-10-28 16:00:00 18.9 10 Oeste 19 Sudoeste 0 -- -- 46
2017-10-28 15:00:00 17.8 6 Noroeste 13 Oeste 0 -- -- 54
2017-10-28 14:00:00 16.1 5 Oeste 16 Oeste 0 -- -- 59
2017-10-28 13:00:00 14.5 4 Norte 9 Sudoeste 0 -- -- 62
2017-10-28 12:00:00 12.9 2 Oeste 13 Oeste 0 -- -- 71
2017-10-28 11:00:00 10.6 9 Sudoeste 17 Sudoeste 0 -- -- 86
2017-10-28 10:00:00 7.6 9 Sudoeste 17 Oeste 0 -- -- 96
2017-10-28 09:00:00 3.7 8 Sudoeste 12 Sudoeste 0 -- -- 96
2017-10-28 08:00:00 4.1 10 Sur 13 Sudoeste 0 -- -- 97
2017-10-28 07:00:00 4 9 Sudoeste 13 Sudoeste 0 -- -- 96
2017-10-28 06:00:00 4.5 9 Sudoeste 12 Sudoeste 0 -- -- 95
2017-10-28 05:00:00 4.8 6 Sur 13 Sudoeste 0 -- -- 95
2017-10-28 04:00:00 5.4 8 Sudoeste 10 Sur 0 -- -- 95
2017-10-28 03:00:00 5.2 9 Sudoeste 11 Sudoeste 0 -- -- 94
2017-10-28 02:00:00 5.8 8 Sudoeste 10 Sudoeste 0 -- -- 93
2017-10-28 01:00:00 6.1 8 Sudoeste 12 Sudoeste 0 -- -- 91
2017-10-28 00:00:00 7.3 8 Sudoeste 11 Sur 0 -- -- 88
2017-10-27 23:00:00 9.9 4 Sudoeste 10 Sudoeste 0 -- -- 81
2017-10-27 22:00:00 12.4 5 Oeste 12 Oeste 0 -- -- 73
2017-10-27 21:00:00 12.8 5 Sudoeste 14 Noroeste 0 -- -- 63
2017-10-27 20:00:00 15.9 10 Norte 15 Norte 0 -- -- 52
2017-10-27 19:00:00 18.8 12 Noroeste 26 Norte 0 -- -- 40
2017-10-27 18:00:00 20.8 22 Norte 33 Noroeste 0 -- -- 35
2017-10-27 17:00:00 22.1 26 Noroeste 35 Norte 0 -- -- 30
2017-10-27 16:00:00 22.3 26 Norte 35 Norte 0 -- -- 31
2017-10-27 15:00:00 22.3 20 Norte 30 Noroeste 0 -- -- 35
2017-10-27 14:00:00 21.5 14 Noroeste 25 Noroeste 0 -- -- 38
2017-10-27 13:00:00 20 15 Norte 23 Norte 0 -- -- 43
2017-10-27 12:00:00 18.9 7 Noroeste 14 Oeste 0 -- -- 46
2017-10-27 11:00:00 14 0 Calma 5 Sur 0 -- -- 73
2017-10-27 10:00:00 8.8 4 Sur 10 Sudoeste 0 -- -- 87
2017-10-27 09:00:00 4.7 8 Sur 11 Sudoeste 0 -- -- 93
2017-10-27 08:00:00 3.8 5 Sudoeste 7 Sudoeste 0 -- -- 91
2017-10-27 07:00:00 4.1 3 Sur 8 Sur 0 -- -- 90
2017-10-27 06:00:00 4.6 3 Sudoeste 7 Sudoeste 0 -- -- 89
2017-10-27 05:00:00 4.5 6 Sur 9 Sur 0 -- -- 89
2017-10-27 04:00:00 5.1 6 Sur 9 Sur 0 -- -- 87
2017-10-27 03:00:00 5.3 4 Sudoeste 11 Sudoeste 0 -- -- 86
2017-10-27 02:00:00 6.2 8 Sudoeste 10 Sudoeste 0 -- -- 84
2017-10-27 01:00:00 6.4 10 Sudoeste 12 Sudoeste 0 -- -- 84
2017-10-27 00:00:00 8.1 0 Calma 12 Sudoeste 0 -- -- 74
2017-10-26 23:00:00 9.2 11 Sudoeste 13 Sur 0 -- -- 72
2017-10-26 22:00:00 9.1 9 Sudoeste 12 Sur 0 -- -- 74
2017-10-26 21:00:00 10.2 10 Sudoeste 12 Sudoeste 0 -- -- 73
2017-10-26 20:00:00 13.1 8 Sudoeste 10 Sudoeste 0 -- -- 62
2017-10-26 19:00:00 21 6 Norte 10 Norte 0 -- -- 34
2017-10-26 18:00:00 22.6 5 Norte 14 Nordeste 0 -- -- 33
2017-10-26 17:00:00 23.2 7 Nordeste 17 Nordeste 0 -- -- 31
2017-10-26 16:00:00 23.2 6 Nordeste 14 Norte 0 -- -- 30
2017-10-26 15:00:00 22.9 5 Oeste 15 Noroeste 0 -- -- 31
2017-10-26 14:00:00 21.6 8 Nordeste 15 Norte 0 -- -- 35
2017-10-26 13:00:00 19.9 6 Nordeste 10 Nordeste 0 -- -- 40
2017-10-26 12:00:00 15.9 4 Nordeste 8 Norte 0 -- -- 59
2017-10-26 11:00:00 12.9 4 Nordeste 6 Norte 0 -- -- 68
2017-10-26 10:00:00 8.4 5 Sur 7 Sur 0 -- -- 83
2017-10-26 09:00:00 3.8 7 Sudoeste 9 Sur 0 -- -- 93
2017-10-26 08:00:00 4.2 0 Calma 10 Sudoeste 0 -- -- 87
2017-10-26 07:00:00 5.2 3 Oeste 10 Noroeste 0 -- -- 83
2017-10-26 06:00:00 4.9 6 Sur 9 Sur 0 -- -- 88
2017-10-26 05:00:00 5.8 3 Sudoeste 13 Sur 0 -- -- 84
2017-10-26 04:00:00 6.4 3 Sudoeste 12 Sur 0 -- -- 80
2017-10-26 03:00:00 6.5 6 Sudoeste 9 Sur 0 -- -- 81
2017-10-26 02:00:00 7.9 3 Sudoeste 6 Sur 0 -- -- 74
2017-10-26 01:00:00 9.2 0 Calma 8 Nordeste 0 -- -- 69
2017-10-26 00:00:00 9.4 4 Norte 7 Nordeste 0 -- -- 70
2017-10-25 23:00:00 11.9 0 Calma 13 Noroeste 0 -- -- 60
2017-10-25 22:00:00 14 0 Calma 14 Sur 0 -- -- 51
2017-10-25 21:00:00 17 11 Sur 15 Sur 0 -- -- 40
2017-10-25 20:00:00 17.4 7 Sur 14 Sur 0 -- -- 41
2017-10-25 19:00:00 21.5 7 Sur 17 Sudoeste 0 -- -- 35
2017-10-25 18:00:00 24.7 9 Sudoeste 17 Sudoeste 0 -- -- 29
2017-10-25 17:00:00 25 6 Sudeste 11 Sur 0 -- -- 30
2017-10-25 16:00:00 24.5 5 Nordeste 11 Noroeste 0 -- -- 33
2017-10-25 15:00:00 23.4 5 Norte 13 Norte 0 -- -- 35
2017-10-25 14:00:00 22.4 9 Nordeste 13 Nordeste 0 -- -- 38
2017-10-25 13:00:00 19.7 6 Norte 9 Nordeste 0 -- -- 51
2017-10-25 12:00:00 16.3 5 Norte 7 Nordeste 0 -- -- 64
2017-10-25 11:00:00 11.3 0 Calma 4 Norte 0 -- -- 76
2017-10-25 10:00:00 8.3 2 Nordeste 7 Sur 0 -- -- 84
2017-10-25 09:00:00 4.3 4 Sudoeste 10 Sudoeste 0 -- -- 92
2017-10-25 08:00:00 4.9 0 Calma 3 Nordeste 0 -- -- 90
2017-10-25 07:00:00 6.2 4 Sudoeste 10 Sur 0 -- -- 85
2017-10-25 06:00:00 6 7 Sur 9 Sudoeste 0 -- -- 89
2017-10-25 05:00:00 6.3 5 Sudoeste 12 Sudoeste 0 -- -- 86
2017-10-25 04:00:00 5.8 10 Sudoeste 13 Sudoeste 0 -- -- 91
2017-10-25 03:00:00 6.5 8 Sudoeste 10 Sur 0 -- -- 88
2017-10-25 02:00:00 6.9 3 Sudoeste 10 Sur 0 -- -- 87
2017-10-25 01:00:00 7.6 9 Sur 10 Sur 0 -- -- 85
2017-10-25 00:00:00 8.3 5 Sudoeste 7 Sur 0 -- -- 84